Wittenberg, South Dakota
Current Conditions -  °F | °C
As of 4:35 AM on Monday 22 Dec 2014 (Local Time) from KYKN Reporting Station
Overcast Overcast  
Wind Chill: 37°   Ceiling: 1000
Heat Index: 41°   Visibility: 4mi
Dew Point: 37°   Wind: 6mph
Humidity: 87%   Direction: 220°SW
Pressure: 29.47"   Gusts: NA
Location:  43.2846°N, 97.7352°W
Report Text: KYKN 221035Z AUTO 22005KT 4SM SCT005 BKN010 OVC015 05/03 A2947 RMK AO1 P0003
Loading
Personal Weather Stations






























Interactive Weather Map New forecast layout! Learn more

10-Day Weather Forecast

Advertisements
Track Severe Weather on mobile